createdAt,value
2023-07-20T00:04:43.697Z,95395.72
2023-07-20T00:07:10.997Z,95393.28
2023-07-20T00:09:38.394Z,95405.44
2023-07-20T00:12:06.062Z,95405.69
2023-07-20T00:14:33.442Z,95395.78
2023-07-20T00:17:00.852Z,95384.69
2023-07-20T00:19:28.882Z,95384.00
2023-07-20T00:21:56.459Z,95383.81
2023-07-20T00:24:24.413Z,95386.53
2023-07-20T00:26:51.623Z,95383.94
2023-07-20T00:29:19.360Z,95399.41
2023-07-20T00:31:48.323Z,95396.88
2023-07-20T00:34:16.510Z,95400.41
2023-07-20T00:36:43.905Z,95398.91
2023-07-20T00:39:11.032Z,95410.72
2023-07-20T00:41:39.369Z,95419.06
2023-07-20T00:44:07.274Z,95419.88
2023-07-20T00:46:35.991Z,95411.34
2023-07-20T00:49:03.937Z,95406.38
2023-07-20T00:51:31.173Z,95405.59
2023-07-20T00:53:58.847Z,95412.78
2023-07-20T00:56:26.637Z,95414.41
2023-07-20T00:58:54.122Z,95406.41
2023-07-20T01:01:23.599Z,95412.13
2023-07-20T01:03:51.034Z,95413.66
2023-07-20T01:06:33.024Z,95415.00
2023-07-20T01:09:20.796Z,95419.91
2023-07-20T01:12:27.789Z,95414.06
2023-07-20T01:14:55.732Z,95416.41
2023-07-20T01:17:23.033Z,95406.09
2023-07-20T01:19:50.205Z,95402.25
2023-07-20T01:22:36.485Z,95395.66
2023-07-20T01:25:10.057Z,95403.09
2023-07-20T01:27:40.138Z,95397.44
2023-07-20T01:30:45.445Z,95405.66
2023-07-20T01:33:16.628Z,95399.56
2023-07-20T01:35:46.099Z,95403.09
2023-07-20T01:38:14.954Z,95410.72
2023-07-20T01:40:42.527Z,95402.22
2023-07-20T01:43:09.795Z,95409.94
2023-07-20T01:45:37.217Z,95411.88
2023-07-20T01:48:05.102Z,95414.50
2023-07-20T01:50:32.387Z,95410.81
2023-07-20T01:53:00.352Z,95411.00
2023-07-20T01:55:27.738Z,95414.31
2023-07-20T01:57:56.702Z,95406.28
2023-07-20T02:00:26.514Z,95407.31
2023-07-20T02:02:53.798Z,95414.69
2023-07-20T02:05:21.349Z,95408.53
2023-07-20T02:07:49.502Z,95413.44
2023-07-20T02:10:21.573Z,95412.41
2023-07-20T02:12:49.105Z,95423.63
2023-07-20T02:15:17.719Z,95408.19
2023-07-20T02:17:45.042Z,95416.94
2023-07-20T02:20:12.643Z,95417.22
2023-07-20T02:22:40.854Z,95409.44
2023-07-20T02:25:09.190Z,95414.69
2023-07-20T02:27:36.900Z,95422.38
2023-07-20T02:30:05.267Z,95439.34
2023-07-20T02:32:35.258Z,95419.56
2023-07-20T02:35:05.184Z,95408.19
2023-07-20T02:37:32.510Z,95417.00
2023-07-20T02:39:59.744Z,95414.09
2023-07-20T02:42:29.033Z,95406.69
2023-07-20T02:44:56.355Z,95413.34
2023-07-20T02:47:23.806Z,95414.00
2023-07-20T02:49:51.159Z,95417.41
2023-07-20T02:52:19.898Z,95421.78
2023-07-20T02:54:48.939Z,95440.84
2023-07-20T02:57:16.603Z,95447.44
2023-07-20T02:59:43.780Z,95457.03
2023-07-20T03:02:11.151Z,95448.31
2023-07-20T03:04:38.766Z,95451.31
2023-07-20T03:07:06.602Z,95448.28
2023-07-20T03:09:33.982Z,95447.13
2023-07-20T03:12:02.120Z,95444.25
2023-07-20T03:14:30.229Z,95451.56
2023-07-20T03:16:57.909Z,95451.63
2023-07-20T03:19:27.370Z,95455.69
2023-07-20T03:21:54.664Z,95453.78
2023-07-20T03:24:22.138Z,95458.94
2023-07-20T03:26:49.489Z,95464.97
2023-07-20T03:29:17.415Z,95468.31
2023-07-20T03:31:45.641Z,95483.06
2023-07-20T03:34:15.191Z,95479.75
2023-07-20T03:36:43.513Z,95470.19
2023-07-20T03:39:12.717Z,95476.16
2023-07-20T03:41:40.028Z,95478.06
2023-07-20T03:44:07.552Z,95471.75
2023-07-20T03:46:35.288Z,95475.56
2023-07-20T03:49:02.705Z,95476.53
2023-07-20T03:51:30.538Z,95476.94
2023-07-20T03:53:59.714Z,95476.84
2023-07-20T03:56:27.759Z,95480.56
2023-07-20T03:58:55.401Z,95472.72
2023-07-20T04:01:22.661Z,95482.38
2023-07-20T04:03:50.326Z,95488.97
2023-07-20T04:06:18.738Z,95481.63
2023-07-20T04:08:48.364Z,95489.50
2023-07-20T04:11:15.629Z,95486.25
2023-07-20T04:13:42.854Z,95482.31
2023-07-20T04:16:10.164Z,95481.72
2023-07-20T04:18:37.414Z,95479.88
2023-07-20T04:21:04.803Z,95482.31
2023-07-20T04:23:32.780Z,95487.00
2023-07-20T04:26:00.190Z,95484.59
2023-07-20T04:28:27.643Z,95487.00
2023-07-20T04:30:55.108Z,95487.53
2023-07-20T04:33:23.433Z,95489.34
2023-07-20T04:35:55.652Z,95494.44
2023-07-20T04:38:29.368Z,95489.66
2023-07-20T04:41:04.894Z,95497.09
2023-07-20T04:43:36.761Z,95490.25
2023-07-20T04:46:03.940Z,95501.59
2023-07-20T04:48:33.940Z,95504.22
2023-07-20T04:51:01.224Z,95495.56
2023-07-20T04:53:29.023Z,95503.88
2023-07-20T04:55:57.140Z,95493.44
2023-07-20T04:58:26.161Z,95500.50
2023-07-20T05:00:55.285Z,95496.97
2023-07-20T05:03:23.201Z,95501.00
2023-07-20T05:05:50.844Z,95510.00
2023-07-20T05:08:18.657Z,95509.59
2023-07-20T05:10:50.891Z,95503.69
2023-07-20T05:13:18.333Z,95509.41
2023-07-20T05:15:45.563Z,95506.13
2023-07-20T05:18:20.914Z,95500.75
2023-07-20T05:20:49.013Z,95506.94
2023-07-20T05:23:22.803Z,95516.22
2023-07-20T05:25:57.588Z,95502.00
2023-07-20T05:28:25.598Z,95505.91
2023-07-20T05:30:53.426Z,95506.66
2023-07-20T05:33:21.520Z,95502.47
2023-07-20T05:35:49.190Z,95504.88
2023-07-20T05:38:16.502Z,95511.19
2023-07-20T05:40:45.854Z,95501.56
2023-07-20T05:43:13.054Z,95508.66
2023-07-20T05:45:44.052Z,95511.16
2023-07-20T05:48:12.595Z,95514.97
2023-07-20T05:50:44.574Z,95513.59
2023-07-20T05:53:11.820Z,95517.53
2023-07-20T05:55:40.445Z,95508.88
2023-07-20T05:58:07.617Z,95512.00
2023-07-20T06:00:34.866Z,95518.53
2023-07-20T06:03:02.160Z,95522.25
2023-07-20T06:05:30.867Z,95519.13
2023-07-20T06:07:59.491Z,95521.50
2023-07-20T06:10:27.714Z,95528.09
2023-07-20T06:12:56.403Z,95527.09
2023-07-20T06:15:28.420Z,95524.56
2023-07-20T06:17:59.728Z,95524.69
2023-07-20T06:20:27.170Z,95518.44
2023-07-20T06:22:54.663Z,95518.47
2023-07-20T06:25:22.267Z,95521.41
2023-07-20T06:27:52.527Z,95528.09
2023-07-20T06:30:19.998Z,95524.91
2023-07-20T06:32:47.406Z,95528.00
2023-07-20T06:35:15.170Z,95525.91
2023-07-20T06:37:43.207Z,95525.53
2023-07-20T06:45:11.501Z,95514.72
2023-07-20T06:47:42.009Z,95520.34
2023-07-20T06:50:10.438Z,95516.22
2023-07-20T06:52:37.995Z,95513.31
2023-07-20T06:55:06.259Z,95519.25
2023-07-20T06:57:33.832Z,95519.19
2023-07-20T07:00:01.157Z,95532.59
2023-07-20T07:02:28.429Z,95524.56
2023-07-20T07:07:27.991Z,95521.97
2023-07-20T07:09:55.470Z,95515.84
2023-07-20T07:12:22.774Z,95517.31
2023-07-20T07:14:49.955Z,95517.09
2023-07-20T07:17:20.414Z,95532.06
2023-07-20T07:19:50.795Z,95520.75
2023-07-20T07:22:17.977Z,95529.19
2023-07-20T07:24:45.188Z,95526.34
2023-07-20T07:27:12.481Z,95528.00
2023-07-20T07:29:39.656Z,95519.13
2023-07-20T07:32:07.521Z,95524.22
2023-07-20T07:34:35.846Z,95525.00
2023-07-20T07:37:03.520Z,95534.41
2023-07-20T07:42:01.270Z,95533.53
2023-07-20T07:44:28.445Z,95525.91
2023-07-20T07:46:55.833Z,95531.69
2023-07-20T07:49:23.396Z,95523.63
2023-07-20T07:51:50.737Z,95527.38
2023-07-20T07:54:17.925Z,95527.31
2023-07-20T07:56:45.905Z,95537.41
2023-07-20T07:59:13.077Z,95533.03
2023-07-20T08:01:40.290Z,95528.94
2023-07-20T08:04:07.603Z,95531.16
2023-07-20T08:06:34.906Z,95526.81
2023-07-20T08:09:03.330Z,95530.16
2023-07-20T08:11:31.867Z,95532.97
2023-07-20T08:13:59.030Z,95534.38
2023-07-20T08:16:26.763Z,95539.75
2023-07-20T08:18:54.552Z,95533.44
2023-07-20T08:21:22.065Z,95536.78
2023-07-20T08:23:49.223Z,95534.97
2023-07-20T08:26:16.416Z,95533.38
2023-07-20T08:28:45.585Z,95541.88
2023-07-20T08:31:12.857Z,95540.31
2023-07-20T08:33:40.447Z,95542.09
2023-07-20T08:36:11.713Z,95544.69
2023-07-20T08:38:39.586Z,95535.88
2023-07-20T08:41:06.734Z,95539.00
2023-07-20T08:43:35.977Z,95527.94
2023-07-20T08:46:04.597Z,95535.38
2023-07-20T08:48:32.360Z,95537.09
2023-07-20T08:51:01.334Z,95541.47
2023-07-20T08:53:29.455Z,95538.22
2023-07-20T08:55:56.817Z,95537.94
2023-07-20T08:58:26.953Z,95535.81
2023-07-20T09:00:55.189Z,95535.50
2023-07-20T09:03:22.535Z,95532.00
2023-07-20T09:05:49.998Z,95531.47
2023-07-20T09:08:17.153Z,95527.75
2023-07-20T09:10:44.219Z,95529.25
2023-07-20T09:13:15.955Z,95526.84
2023-07-20T09:15:51.935Z,95526.03
2023-07-20T09:18:28.918Z,95519.72
2023-07-20T09:21:03.963Z,95517.84
2023-07-20T09:23:40.704Z,95518.50
2023-07-20T09:26:16.538Z,95514.47
2023-07-20T09:28:47.940Z,95513.63
2023-07-20T09:31:19.994Z,95508.56
2023-07-20T09:36:56.946Z,95514.31
2023-07-20T09:39:06.363Z,95507.31
2023-07-20T09:41:47.223Z,95512.09
2023-07-20T09:51:51.582Z,95503.50
2023-07-20T09:54:20.346Z,95492.63
2023-07-20T09:56:49.737Z,95504.38
2023-07-20T09:59:17.620Z,95501.34
2023-07-20T10:01:46.186Z,95508.13
2023-07-20T10:04:15.067Z,95496.06
2023-07-20T10:06:44.388Z,95504.94
2023-07-20T10:09:13.687Z,95507.56
2023-07-20T10:12:06.371Z,95514.84
2023-07-20T10:14:47.086Z,95508.03
2023-07-20T10:17:15.938Z,95497.59
2023-07-20T10:19:51.877Z,95508.25
2023-07-20T10:22:25.903Z,95497.84
2023-07-20T10:24:55.206Z,95512.13
2023-07-20T10:27:22.540Z,95508.34
2023-07-20T10:29:50.035Z,95508.84
2023-07-20T10:32:18.110Z,95506.84
2023-07-20T10:34:52.500Z,95502.03
2023-07-20T10:37:47.506Z,95499.50
2023-07-20T10:40:29.863Z,95495.13
2023-07-20T10:43:08.533Z,95491.19
2023-07-20T10:45:53.410Z,95485.94
2023-07-20T10:48:23.393Z,95486.03
2023-07-20T10:51:29.838Z,95482.25
2023-07-20T10:53:58.042Z,95483.81
2023-07-20T10:56:28.770Z,95483.28
2023-07-20T10:59:00.741Z,95481.47
2023-07-20T11:01:32.729Z,95482.16
2023-07-20T11:04:04.441Z,95479.50
2023-07-20T11:06:33.307Z,95474.53
2023-07-20T11:09:17.182Z,95469.91
2023-07-20T11:11:50.312Z,95477.69
2023-07-20T11:14:25.098Z,95474.75
2023-07-20T11:16:53.918Z,95470.09
2023-07-20T11:22:02.646Z,95460.56
2023-07-20T11:24:31.779Z,95469.09
2023-07-20T11:26:59.391Z,95463.88
2023-07-20T11:31:59.828Z,95465.72
2023-07-20T11:34:28.522Z,95465.44
2023-07-20T11:39:26.822Z,95463.88
2023-07-20T11:41:56.841Z,95454.25
2023-07-20T11:44:29.342Z,95456.16
2023-07-20T11:47:08.440Z,95447.66
2023-07-20T11:49:39.761Z,95450.66
2023-07-20T11:52:11.926Z,95445.38
2023-07-20T11:54:41.117Z,95444.56
2023-07-20T11:57:17.237Z,95438.16
2023-07-20T11:59:58.686Z,95427.94
2023-07-20T12:02:28.922Z,95431.72
2023-07-20T12:04:56.891Z,95422.97
2023-07-20T12:07:24.108Z,95421.94
2023-07-20T12:10:11.770Z,95417.16
2023-07-20T12:12:40.496Z,95423.59
2023-07-20T12:15:27.440Z,95417.34
2023-07-20T12:17:56.848Z,95412.78
2023-07-20T12:20:31.336Z,95415.06
2023-07-20T12:23:02.129Z,95416.31
2023-07-20T12:25:43.439Z,95412.47
2023-07-20T12:28:18.734Z,95410.06
2023-07-20T12:30:47.305Z,95405.13
2023-07-20T12:33:18.450Z,95403.84
2023-07-20T12:35:45.846Z,95399.34
2023-07-20T12:38:13.008Z,95392.06
2023-07-20T12:40:41.546Z,95387.59
2023-07-20T12:43:09.024Z,95395.50
2023-07-20T12:45:36.103Z,95384.97
2023-07-20T12:48:03.436Z,95377.09
2023-07-20T12:50:31.056Z,95379.25
2023-07-20T12:52:58.295Z,95379.81
2023-07-20T12:55:25.409Z,95377.28
2023-07-20T12:57:53.696Z,95384.16
2023-07-20T13:00:21.056Z,95381.59
2023-07-20T13:02:48.548Z,95371.94
2023-07-20T13:05:17.436Z,95372.84
2023-07-20T13:10:15.240Z,95365.19
2023-07-20T13:12:42.542Z,95366.75
2023-07-20T13:15:11.662Z,95360.91
2023-07-20T13:17:40.389Z,95356.31
2023-07-20T13:20:11.239Z,95358.47
2023-07-20T13:22:39.686Z,95356.19
2023-07-20T13:25:08.304Z,95357.09
2023-07-20T13:30:10.330Z,95344.06
2023-07-20T13:32:41.038Z,95354.66
2023-07-20T13:35:09.110Z,95344.97
2023-07-20T13:37:36.326Z,95342.63
2023-07-20T13:40:07.414Z,95344.41
2023-07-20T13:42:35.444Z,95341.00
2023-07-20T13:45:04.411Z,95332.66
2023-07-20T13:47:34.036Z,95340.25
2023-07-20T13:50:07.723Z,95330.00
2023-07-20T13:55:06.434Z,95325.69
2023-07-20T13:57:35.452Z,95323.22
2023-07-20T14:00:05.326Z,95319.91
2023-07-20T14:07:41.080Z,95307.53
2023-07-20T14:12:38.932Z,95311.47
2023-07-20T14:15:06.892Z,95301.34
2023-07-20T14:17:34.089Z,95301.41
2023-07-20T14:20:01.328Z,95304.22
2023-07-20T14:22:28.552Z,95301.69
2023-07-20T14:24:55.872Z,95296.88
2023-07-20T14:27:23.244Z,95300.84
2023-07-20T14:29:50.423Z,95296.91
2023-07-20T14:32:17.602Z,95295.47
2023-07-20T14:37:14.497Z,95293.63
2023-07-20T14:39:41.920Z,95288.75
2023-07-20T14:42:09.095Z,95289.84
2023-07-20T14:44:36.587Z,95296.00
2023-07-20T14:47:14.379Z,95293.13
2023-07-20T14:49:42.871Z,95289.06
2023-07-20T14:54:40.562Z,95285.16
2023-07-20T14:57:15.256Z,95279.94
2023-07-20T14:59:43.383Z,95287.28
2023-07-20T15:02:10.621Z,95285.94
2023-07-20T15:04:37.840Z,95273.22
2023-07-20T15:07:05.613Z,95278.09
2023-07-20T15:09:32.913Z,95284.06
2023-07-20T15:12:00.114Z,95274.56
2023-07-20T15:14:27.280Z,95261.03
2023-07-20T15:16:54.798Z,95269.06
2023-07-20T15:19:23.182Z,95267.72
2023-07-20T15:21:50.409Z,95268.13
2023-07-20T15:24:17.729Z,95264.63
2023-07-20T15:26:45.180Z,95258.03
2023-07-20T15:29:35.934Z,95258.88
2023-07-20T15:32:00.926Z,95255.22
2023-07-20T15:34:28.883Z,95254.13
2023-07-20T15:36:56.185Z,95257.81
2023-07-20T15:39:24.712Z,95251.16
2023-07-20T15:41:51.870Z,95249.38
2023-07-20T15:44:19.167Z,95248.41
2023-07-20T15:46:49.427Z,95250.47
2023-07-20T15:49:17.703Z,95244.50
2023-07-20T15:51:47.293Z,95249.63
2023-07-20T15:54:15.738Z,95243.19
2023-07-20T15:56:44.556Z,95244.94
2023-07-20T15:59:13.729Z,95244.66
2023-07-20T16:01:42.826Z,95245.53
2023-07-20T16:04:10.659Z,95243.03
2023-07-20T16:06:47.878Z,95239.00
2023-07-20T16:09:16.019Z,95232.75
2023-07-20T16:11:43.433Z,95231.53
2023-07-20T16:14:10.900Z,95220.97
2023-07-20T16:16:38.263Z,95223.97
2023-07-20T16:19:05.997Z,95212.84
2023-07-20T16:21:33.573Z,95214.16
2023-07-20T16:24:01.692Z,95220.44
2023-07-20T16:26:28.970Z,95213.38
2023-07-20T16:31:26.928Z,95211.66
2023-07-20T16:34:05.938Z,95214.81
2023-07-20T16:36:57.108Z,95210.34
2023-07-20T16:44:22.070Z,95203.75
2023-07-20T16:49:19.392Z,95209.13
2023-07-20T16:51:46.666Z,95212.06
2023-07-20T16:54:15.543Z,95209.38
2023-07-20T16:56:44.232Z,95207.09
2023-07-20T16:59:11.335Z,95200.31
2023-07-20T17:01:38.611Z,95206.84
2023-07-20T17:04:05.902Z,95202.47
2023-07-20T17:06:33.241Z,95205.00
2023-07-20T17:09:02.175Z,95211.47
2023-07-20T17:11:29.421Z,95205.41
2023-07-20T17:13:59.380Z,95203.16
2023-07-20T17:16:26.688Z,95203.56
2023-07-20T17:18:53.979Z,95203.06
2023-07-20T17:21:21.794Z,95205.00
2023-07-20T17:28:50.855Z,95206.66
2023-07-20T17:31:21.213Z,95202.38
2023-07-20T17:33:48.482Z,95206.19
2023-07-20T17:38:46.773Z,95205.38
2023-07-20T17:41:16.088Z,95199.00
2023-07-20T17:43:43.688Z,95202.31
2023-07-20T17:48:41.165Z,95201.41
2023-07-20T17:51:08.855Z,95207.03
2023-07-20T17:53:36.096Z,95198.41
2023-07-20T17:56:03.508Z,95196.88
2023-07-20T17:58:31.420Z,95199.50
2023-07-20T18:00:59.809Z,95199.50
2023-07-20T18:03:27.334Z,95205.78
2023-07-20T18:05:55.485Z,95199.91
2023-07-20T18:08:22.666Z,95200.41
2023-07-20T18:10:49.786Z,95203.81
2023-07-20T18:13:16.945Z,95192.59
2023-07-20T18:15:44.191Z,95201.00
2023-07-20T18:18:11.385Z,95203.63
2023-07-20T18:20:38.649Z,95200.22
2023-07-20T18:23:05.773Z,95202.25
2023-07-20T18:25:32.942Z,95204.53
2023-07-20T18:28:00.056Z,95201.41
2023-07-20T18:30:33.835Z,95197.59
2023-07-20T18:33:02.133Z,95192.13
2023-07-20T18:35:31.003Z,95198.44
2023-07-20T18:37:58.356Z,95191.81
2023-07-20T18:40:26.734Z,95196.53
2023-07-20T18:42:54.916Z,95198.44
2023-07-20T18:45:22.062Z,95198.06
2023-07-20T18:47:49.261Z,95198.22
2023-07-20T18:50:17.279Z,95195.34
2023-07-20T18:52:46.159Z,95198.63
2023-07-20T18:55:14.042Z,95203.31
2023-07-20T18:57:42.160Z,95199.16
2023-07-20T19:00:11.298Z,95199.91
2023-07-20T19:02:38.791Z,95202.44
2023-07-20T19:05:06.598Z,95211.56
2023-07-20T19:07:33.772Z,95209.28
2023-07-20T19:10:00.887Z,95213.78
2023-07-20T19:12:28.142Z,95221.78
2023-07-20T19:14:55.330Z,95219.16
2023-07-20T19:17:26.124Z,95225.09
2023-07-20T19:19:53.464Z,95221.63
2023-07-20T19:22:20.667Z,95220.63
2023-07-20T19:24:48.240Z,95220.88
2023-07-20T19:27:15.971Z,95228.81
2023-07-20T19:29:43.190Z,95229.16
2023-07-20T19:32:11.600Z,95230.53
2023-07-20T19:34:38.862Z,95236.16
2023-07-20T19:37:06.461Z,95234.50
2023-07-20T19:39:33.714Z,95240.03
2023-07-20T19:42:00.937Z,95234.50
2023-07-20T19:44:28.384Z,95240.88
2023-07-20T19:46:58.262Z,95239.19
2023-07-20T19:49:27.718Z,95245.59
2023-07-20T19:51:56.120Z,95252.13
2023-07-20T19:56:55.117Z,95250.09
2023-07-20T19:59:22.265Z,95259.56
2023-07-20T20:01:49.432Z,95255.72
2023-07-20T20:06:51.019Z,95259.97
2023-07-20T20:09:18.168Z,95256.81
2023-07-20T20:11:47.587Z,95259.63
2023-07-20T20:14:15.998Z,95264.22
2023-07-20T20:16:45.766Z,95258.06
2023-07-20T20:19:14.286Z,95253.91
2023-07-20T20:21:41.561Z,95251.69
2023-07-20T20:24:08.948Z,95250.53
2023-07-20T20:26:39.941Z,95245.28
2023-07-20T20:29:07.673Z,95254.59
2023-07-20T20:31:35.463Z,95253.22
2023-07-20T20:34:02.810Z,95246.84
2023-07-20T20:36:30.096Z,95246.16
2023-07-20T20:38:57.681Z,95249.41
2023-07-20T20:41:30.645Z,95248.50
2023-07-20T20:43:57.831Z,95237.06
2023-07-20T20:46:25.262Z,95243.69
2023-07-20T20:48:52.725Z,95237.66
2023-07-20T20:51:19.902Z,95237.53
2023-07-20T20:53:47.038Z,95237.22
2023-07-20T20:56:14.261Z,95246.63
2023-07-20T20:58:41.448Z,95237.97
2023-07-20T21:01:09.358Z,95242.78
2023-07-20T21:03:36.980Z,95227.06
2023-07-20T21:06:04.224Z,95237.97
2023-07-20T21:08:31.550Z,95237.41
2023-07-20T21:10:59.330Z,95227.97
2023-07-20T21:13:27.065Z,95238.88
2023-07-20T21:15:55.612Z,95228.09
2023-07-20T21:18:23.007Z,95222.38
2023-07-20T21:20:50.835Z,95221.38
2023-07-20T21:23:21.865Z,95227.75
2023-07-20T21:25:49.589Z,95231.78
2023-07-20T21:28:17.889Z,95222.16
2023-07-20T21:30:46.261Z,95231.34
2023-07-20T21:33:16.375Z,95224.28
2023-07-20T21:35:44.642Z,95227.06
2023-07-20T21:38:12.062Z,95235.16
2023-07-20T21:40:39.334Z,95234.47
2023-07-20T21:43:06.679Z,95232.44
2023-07-20T21:45:35.269Z,95235.94
2023-07-20T21:48:02.852Z,95236.56
2023-07-20T21:50:30.457Z,95234.03
2023-07-20T21:52:59.715Z,95229.63
2023-07-20T21:55:27.177Z,95228.91
2023-07-20T21:57:54.356Z,95241.47
2023-07-20T22:00:24.560Z,95232.84
2023-07-20T22:02:52.103Z,95230.50
2023-07-20T22:05:22.230Z,95233.81
2023-07-20T22:07:49.711Z,95230.34
2023-07-20T22:10:17.583Z,95228.34
2023-07-20T22:12:44.776Z,95225.41
2023-07-20T22:15:13.838Z,95225.69
2023-07-20T22:17:41.008Z,95225.09
2023-07-20T22:20:17.178Z,95221.34
2023-07-20T22:22:44.724Z,95229.81
2023-07-20T22:25:11.892Z,95228.03
2023-07-20T22:27:39.046Z,95230.19
2023-07-20T22:30:07.833Z,95220.84
2023-07-20T22:32:35.012Z,95219.56
2023-07-20T22:35:02.442Z,95220.75
2023-07-20T22:37:29.645Z,95212.31
2023-07-20T22:39:57.053Z,95215.53
2023-07-20T22:42:24.341Z,95215.34
2023-07-20T22:44:55.850Z,95209.06
2023-07-20T22:47:23.197Z,95204.41
2023-07-20T22:49:50.851Z,95213.16
2023-07-20T22:52:18.082Z,95216.53
2023-07-20T22:54:45.780Z,95208.34
2023-07-20T22:57:12.895Z,95213.25
2023-07-20T22:59:40.946Z,95214.91
2023-07-20T23:02:09.642Z,95216.75
2023-07-20T23:04:36.998Z,95226.41
2023-07-20T23:07:04.887Z,95226.72
2023-07-20T23:09:32.251Z,95212.56
2023-07-20T23:12:01.967Z,95217.63
2023-07-20T23:14:29.261Z,95214.50
2023-07-20T23:16:56.857Z,95209.59
2023-07-20T23:19:25.244Z,95197.81
2023-07-20T23:21:52.440Z,95193.84
2023-07-20T23:24:19.765Z,95194.72
2023-07-20T23:26:46.999Z,95186.03
2023-07-20T23:29:14.291Z,95185.97
2023-07-20T23:31:41.513Z,95186.34
2023-07-20T23:34:08.678Z,95176.38
2023-07-20T23:36:35.932Z,95170.19
2023-07-20T23:39:03.683Z,95159.97
2023-07-20T23:41:30.936Z,95156.63
2023-07-20T23:43:58.656Z,95160.13
2023-07-20T23:46:29.079Z,95157.41
2023-07-20T23:48:56.908Z,95152.00
2023-07-20T23:51:24.882Z,95154.31
2023-07-20T23:53:52.144Z,95161.88
2023-07-20T23:56:23.416Z,95156.53
2023-07-20T23:58:51.185Z,95151.06
